Time;durP1;ratioP1;P1;durP2;ratioP2;P2;SDS_P1;SDS_P2;PMS_P1;PMS_P2;Temp;Humidity;BMP_temperature;BMP_pressure;BME280_temperature;BME280_humidity;BME280_pressure;Samples;Min_cycle;Max_cycle;Signal;HPM_P1;HPM_P2
2022/10/15 00:00:35;;;;;;;0.50;0.50;;;14.40;99.90;;;;;;5025357;28;20417;-73
2022/10/15 00:03:00;;;;;;;2.00;0.60;;;14.50;99.90;;;;;;5012475;28;20492;-74
2022/10/15 00:05:26;;;;;;;1.23;0.50;;;14.40;99.90;;;;;;5018259;28;20494;-74
2022/10/15 00:07:52;;;;;;;0.50;0.50;;;14.40;99.90;;;;;;5016430;28;20193;-74
2022/10/15 00:10:18;;;;;;;0.50;0.40;;;14.40;99.90;;;;;;5004065;28;20636;-74
2022/10/15 00:12:43;;;;;;;3.50;0.60;;;14.40;99.90;;;;;;5019946;28;20524;-74
2022/10/15 00:15:09;;;;;;;0.50;0.50;;;14.40;99.90;;;;;;5025452;28;20270;-74
2022/10/15 00:17:35;;;;;;;1.17;0.50;;;14.40;99.90;;;;;;5016991;28;20770;-74
2022/10/15 00:20:03;;;;;;;0.50;0.50;;;14.50;99.90;;;;;;5010662;28;20413;-74
2022/10/15 00:22:29;;;;;;;0.50;0.50;;;14.50;99.90;;;;;;5021727;28;20214;-74
2022/10/15 00:24:54;;;;;;;0.50;0.50;;;14.40;99.90;;;;;;5025505;28;20409;-74
2022/10/15 00:27:20;;;;;;;2.10;0.70;;;14.40;99.90;;;;;;5020870;28;20189;-74
2022/10/15 00:29:45;;;;;;;1.70;0.50;;;14.40;99.90;;;;;;5006934;28;20233;-74
2022/10/15 00:32:11;;;;;;;0.50;0.50;;;14.50;99.90;;;;;;5023196;28;20213;-73
2022/10/15 00:34:36;;;;;;;1.53;0.40;;;14.50;99.90;;;;;;5008177;28;20179;-74
2022/10/15 00:37:02;;;;;;;0.50;0.50;;;14.50;99.90;;;;;;5021906;28;20189;-74
2022/10/15 00:39:27;;;;;;;0.40;0.40;;;14.50;99.90;;;;;;5021494;28;20207;-74
2022/10/15 00:41:53;;;;;;;0.87;0.50;;;14.50;99.90;;;;;;5014066;28;20222;-74
2022/10/15 00:44:24;;;;;;;1.07;0.40;;;14.50;99.90;;;;;;5021283;28;20246;-74
2022/10/15 00:47:08;;;;;;;2.13;0.43;;;14.50;99.90;;;;;;5024042;28;20177;-74
2022/10/15 00:49:39;;;;;;;0.57;0.40;;;14.50;99.90;;;;;;5019443;28;20475;-75
2022/10/15 00:52:15;;;;;;;2.50;0.50;;;14.60;99.90;;;;;;5023939;28;20519;-74
2022/10/15 00:54:44;;;;;;;1.77;0.43;;;14.60;99.90;;;;;;5007994;28;20432;-74
2022/10/15 00:57:11;;;;;;;2.23;0.40;;;14.60;99.90;;;;;;5021047;28;20483;-74
2022/10/15 00:59:41;;;;;;;0.40;0.40;;;14.60;99.90;;;;;;5022308;28;20417;-74
2022/10/15 02:31:32;;;;;;;4.17;0.40;;;14.80;99.90;;;;;;5740028;22;20493;-74
2022/10/15 02:34:05;;;;;;;3.63;0.40;;;14.80;99.90;;;;;;4990203;28;20426;-72
2022/10/15 02:36:31;;;;;;;0.40;0.40;;;14.90;99.90;;;;;;5000134;28;20902;-72
2022/10/15 02:39:00;;;;;;;1.80;0.40;;;14.90;99.90;;;;;;4991969;28;20815;-73
2022/10/15 02:41:28;;;;;;;1.70;0.40;;;14.90;99.90;;;;;;5000024;28;20444;-73
2022/10/15 02:43:53;;;;;;;1.60;0.40;;;15.00;99.90;;;;;;4990480;28;20493;-73
2022/10/15 02:46:19;;;;;;;1.07;0.40;;;15.00;99.90;;;;;;5002230;28;20824;-73
2022/10/15 02:48:45;;;;;;;1.63;0.40;;;14.90;99.90;;;;;;4993267;28;20190;-73
2022/10/15 02:51:11;;;;;;;1.47;0.40;;;14.90;99.90;;;;;;4993045;28;20489;-73
2022/10/15 02:53:36;;;;;;;1.93;0.40;;;14.90;99.90;;;;;;4997898;28;20264;-73
2022/10/15 02:56:02;;;;;;;0.50;0.40;;;15.00;99.90;;;;;;4992545;28;20213;-74
2022/10/15 02:58:28;;;;;;;1.20;0.40;;;14.90;99.90;;;;;;4987027;28;20718;-73
2022/10/15 03:00:54;;;;;;;0.80;0.47;;;15.00;99.90;;;;;;5003286;28;20213;-74
2022/10/15 03:03:19;;;;;;;0.40;0.40;;;15.00;99.90;;;;;;5003101;28;20444;-73
2022/10/15 03:05:45;;;;;;;0.40;0.40;;;15.00;99.90;;;;;;4990987;28;20842;-73
2022/10/15 03:08:10;;;;;;;0.40;0.40;;;15.00;99.90;;;;;;4986104;28;20210;-73
2022/10/15 03:10:36;;;;;;;0.40;0.30;;;15.00;99.90;;;;;;4999799;28;20188;-74
2022/10/15 03:13:05;;;;;;;0.67;0.40;;;15.00;99.90;;;;;;4997441;28;20426;-73
2022/10/15 03:15:31;;;;;;;0.40;0.40;;;15.00;99.90;;;;;;4992162;28;20199;-73
2022/10/15 03:17:56;;;;;;;1.53;0.40;;;15.00;99.90;;;;;;4986466;28;20465;-73
2022/10/15 03:20:22;;;;;;;0.40;0.40;;;15.00;99.90;;;;;;4999660;28;20274;-74
2022/10/15 03:22:48;;;;;;;0.30;0.30;;;15.00;99.90;;;;;;5002128;28;20195;-73
2022/10/15 03:25:13;;;;;;;0.50;0.40;;;15.00;99.90;;;;;;4996800;28;20178;-73
2022/10/15 03:27:39;;;;;;;2.37;0.40;;;15.00;99.90;;;;;;4986774;28;20239;-73
2022/10/15 03:30:05;;;;;;;0.40;0.37;;;15.00;99.90;;;;;;5003279;28;20234;-74
2022/10/15 03:32:30;;;;;;;1.53;0.40;;;15.10;99.90;;;;;;5003411;28;20226;-74
2022/10/15 03:34:56;;;;;;;1.30;0.50;;;15.10;99.90;;;;;;5004207;28;20413;-74
2022/10/15 03:37:22;;;;;;;0.40;0.40;;;15.10;99.90;;;;;;4987425;28;20195;-73
2022/10/15 03:39:47;;;;;;;0.40;0.40;;;15.10;99.90;;;;;;5002304;28;20681;-73
2022/10/15 03:42:13;;;;;;;0.47;0.30;;;15.10;99.90;;;;;;5002893;28;20199;-73
2022/10/15 03:44:39;;;;;;;1.30;0.37;;;15.10;99.90;;;;;;5001910;28;20190;-73
2022/10/15 03:47:04;;;;;;;0.40;0.40;;;15.10;99.90;;;;;;4991413;28;20226;-72
2022/10/15 03:49:30;;;;;;;1.07;0.40;;;15.10;99.90;;;;;;4999886;28;20183;-74
2022/10/15 03:51:55;;;;;;;1.00;0.50;;;15.10;99.90;;;;;;5003136;28;20207;-73
2022/10/15 03:54:24;;;;;;;2.40;0.50;;;15.10;99.90;;;;;;4999433;28;20194;-73
2022/10/15 03:56:49;;;;;;;1.33;0.30;;;15.10;99.90;;;;;;4993241;28;20265;-72
2022/10/15 03:59:15;;;;;;;0.30;0.30;;;15.10;99.90;;;;;;4995565;28;21092;-73
2022/10/15 04:01:42;;;;;;;0.90;0.30;;;15.10;99.90;;;;;;5004679;28;20614;-74
2022/10/15 04:04:09;;;;;;;2.23;0.83;;;15.20;99.90;;;;;;4999443;28;20262;-74
2022/10/15 04:06:34;;;;;;;0.80;0.30;;;15.20;99.90;;;;;;4994807;28;20423;-73
2022/10/15 04:09:00;;;;;;;0.40;0.30;;;15.20;99.90;;;;;;4991240;28;20422;-73
2022/10/15 04:11:25;;;;;;;8.23;0.87;;;15.20;99.90;;;;;;4993228;28;20547;-74
2022/10/15 04:13:51;;;;;;;0.50;0.50;;;15.20;99.90;;;;;;4998775;28;20248;-74
2022/10/15 04:16:16;;;;;;;0.40;0.40;;;15.20;99.90;;;;;;4993108;28;20568;-74
2022/10/15 04:18:42;;;;;;;0.50;0.30;;;15.30;99.90;;;;;;4989063;28;20209;-74
2022/10/15 04:21:08;;;;;;;0.40;0.30;;;15.20;99.90;;;;;;5006438;28;20201;-73
2022/10/15 04:23:33;;;;;;;0.50;0.40;;;15.20;99.90;;;;;;5000426;28;20190;-74
2022/10/15 04:26:00;;;;;;;1.17;0.30;;;15.20;99.90;;;;;;4993178;28;20256;-74
2022/10/15 04:28:26;;;;;;;3.13;0.43;;;15.10;99.90;;;;;;4985666;28;20253;-74
2022/10/15 04:30:56;;;;;;;0.30;0.30;;;15.10;99.90;;;;;;5005327;28;20428;-73
2022/10/15 04:33:22;;;;;;;4.37;0.30;;;15.10;99.90;;;;;;5002047;28;20425;-73
2022/10/15 04:35:57;;;;;;;0.50;0.30;;;15.10;99.90;;;;;;4990499;28;20513;-74
2022/10/15 04:38:23;;;;;;;3.27;0.77;;;15.10;99.90;;;;;;5001379;28;20551;-74
2022/10/15 04:40:48;;;;;;;1.17;0.30;;;15.10;99.90;;;;;;5004604;28;20433;-73
2022/10/15 04:43:14;;;;;;;0.60;0.40;;;15.10;99.90;;;;;;5003600;28;20316;-74
2022/10/15 04:45:40;;;;;;;0.60;0.40;;;15.10;99.90;;;;;;4985592;28;20280;-73
2022/10/15 04:48:05;;;;;;;0.50;0.50;;;15.10;99.90;;;;;;5004831;28;20948;-73
2022/10/15 04:50:31;;;;;;;1.47;0.40;;;15.10;99.90;;;;;;4987835;28;20188;-73
2022/10/15 04:52:58;;;;;;;0.70;0.33;;;15.00;99.90;;;;;;5001736;28;20214;-76
2022/10/15 04:55:23;;;;;;;3.50;0.40;;;15.00;99.90;;;;;;5001693;28;20648;-73
2022/10/15 04:57:49;;;;;;;0.50;0.40;;;15.00;99.90;;;;;;5003423;28;20520;-73
2022/10/15 05:00:14;;;;;;;2.87;0.60;;;15.00;99.90;;;;;;4990431;28;20188;-73
2022/10/15 05:02:41;;;;;;;0.40;0.40;;;15.00;99.90;;;;;;4999753;28;20199;-73
2022/10/15 05:05:07;;;;;;;0.50;0.40;;;15.00;99.90;;;;;;5001545;28;20179;-74
2022/10/15 05:07:33;;;;;;;1.10;0.47;;;15.00;99.90;;;;;;5000465;28;20452;-73
2022/10/15 05:09:58;;;;;;;0.93;0.40;;;15.00;99.90;;;;;;4994055;28;20229;-74
2022/10/15 05:12:24;;;;;;;0.40;0.40;;;15.00;99.90;;;;;;4989567;28;20692;-74
2022/10/15 05:14:49;;;;;;;0.70;0.40;;;15.00;99.90;;;;;;4999496;28;20186;-73
2022/10/15 05:17:15;;;;;;;6.80;0.40;;;15.00;99.90;;;;;;4982460;28;20596;-73
2022/10/15 05:19:40;;;;;;;0.53;0.40;;;14.90;99.90;;;;;;4999453;28;20225;-73
2022/10/15 05:22:06;;;;;;;0.30;0.30;;;14.90;99.90;;;;;;5001115;28;20198;-74
2022/10/15 05:24:31;;;;;;;2.10;0.40;;;14.90;99.90;;;;;;4996560;28;20241;-73
2022/10/15 05:26:57;;;;;;;1.07;0.40;;;14.90;99.90;;;;;;4987475;28;20250;-73
2022/10/15 05:29:22;;;;;;;0.77;0.77;;;14.90;99.90;;;;;;4995742;28;20576;-73
2022/10/15 05:31:50;;;;;;;1.13;0.50;;;14.90;99.90;;;;;;5001704;28;20699;-73
2022/10/15 05:34:16;;;;;;;1.70;0.50;;;14.90;99.90;;;;;;4996061;28;20238;-74
2022/10/15 05:36:41;;;;;;;1.67;0.40;;;14.90;99.90;;;;;;4991825;28;20434;-74
2022/10/15 05:39:09;;;;;;;3.33;0.50;;;14.90;99.90;;;;;;5003972;28;20214;-74
2022/10/15 05:41:35;;;;;;;0.50;0.40;;;14.90;99.90;;;;;;5003877;28;20203;-74
2022/10/15 05:44:00;;;;;;;0.40;0.40;;;14.90;99.90;;;;;;4994552;28;20422;-74
2022/10/15 05:46:26;;;;;;;0.53;0.40;;;14.90;99.90;;;;;;4989062;28;20186;-74
2022/10/15 05:48:55;;;;;;;0.40;0.40;;;14.90;99.90;;;;;;5003081;28;20261;-72
2022/10/15 05:51:20;;;;;;;1.43;0.43;;;15.00;99.90;;;;;;5003967;28;20233;-72
2022/10/15 05:53:46;;;;;;;1.03;0.40;;;14.90;99.90;;;;;;4993145;28;20419;-72
2022/10/15 05:56:13;;;;;;;0.40;0.40;;;14.90;99.90;;;;;;4987891;28;20180;-72
2022/10/15 05:58:39;;;;;;;0.70;0.40;;;15.00;99.90;;;;;;5001589;28;20290;-72
2022/10/15 06:01:07;;;;;;;1.70;0.40;;;15.00;99.90;;;;;;5003690;28;20592;-73
2022/10/15 06:03:33;;;;;;;0.90;0.50;;;15.00;99.90;;;;;;4998248;28;20188;-72
2022/10/15 06:05:59;;;;;;;0.50;0.50;;;15.00;99.90;;;;;;5003994;28;20424;-72
2022/10/15 06:08:26;;;;;;;1.43;0.50;;;15.00;99.90;;;;;;4995444;28;20430;-72
2022/10/15 06:10:51;;;;;;;2.20;0.60;;;15.00;99.90;;;;;;4986582;28;20179;-72
2022/10/15 06:13:17;;;;;;;0.50;0.50;;;15.00;99.90;;;;;;5000272;28;20426;-72
2022/10/15 06:15:44;;;;;;;0.50;0.40;;;15.00;99.90;;;;;;5002100;28;20197;-72
2022/10/15 06:18:14;;;;;;;2.33;0.50;;;15.00;99.90;;;;;;4997418;28;20523;-72
2022/10/15 06:20:40;;;;;;;0.40;0.40;;;15.00;99.90;;;;;;4984550;28;20423;-72
2022/10/15 06:23:06;;;;;;;1.40;0.40;;;14.90;99.90;;;;;;4985757;28;20420;-72
2022/10/15 06:25:32;;;;;;;3.10;0.70;;;14.90;99.90;;;;;;4983070;28;20427;-72
2022/10/15 06:28:02;;;;;;;5.33;0.50;;;14.90;99.90;;;;;;5000227;28;20655;-72
2022/10/15 06:30:28;;;;;;;1.17;0.50;;;15.00;99.90;;;;;;5000518;28;20434;-72
2022/10/15 06:32:54;;;;;;;0.40;0.30;;;14.90;99.90;;;;;;4998384;28;20899;-72
2022/10/15 06:35:21;;;;;;;0.80;0.40;;;15.00;99.90;;;;;;4987289;28;20184;-72
2022/10/15 06:37:47;;;;;;;0.40;0.40;;;14.90;99.90;;;;;;4997303;28;20219;-72
2022/10/15 06:40:14;;;;;;;3.43;0.43;;;15.00;99.90;;;;;;4980897;28;20710;-72
2022/10/15 06:42:40;;;;;;;0.60;0.50;;;15.00;99.90;;;;;;4985005;28;20789;-72
2022/10/15 06:45:07;;;;;;;0.50;0.50;;;15.00;99.90;;;;;;4993971;28;20418;-73
2022/10/15 06:47:33;;;;;;;1.53;0.50;;;15.00;99.90;;;;;;4988573;28;20411;-72
2022/10/15 06:49:59;;;;;;;1.47;0.50;;;15.00;99.90;;;;;;4991864;28;20813;-72
2022/10/15 06:52:25;;;;;;;0.50;0.50;;;15.00;99.90;;;;;;4989783;28;20435;-72
2022/10/15 06:54:50;;;;;;;1.70;0.50;;;15.00;99.90;;;;;;4996204;28;20420;-72
2022/10/15 06:57:16;;;;;;;5.57;0.50;;;15.10;99.90;;;;;;4992678;28;20176;-72
2022/10/15 06:59:41;;;;;;;0.80;0.80;;;15.10;99.90;;;;;;4987305;28;20207;-72
2022/10/15 07:02:10;;;;;;;2.00;0.50;;;15.10;99.90;;;;;;5005826;28;20205;-72
2022/10/15 07:04:36;;;;;;;0.83;0.43;;;15.20;99.90;;;;;;5004471;28;20655;-72
2022/10/15 07:07:01;;;;;;;0.50;0.40;;;15.20;99.90;;;;;;5004609;28;20420;-72
2022/10/15 07:09:27;;;;;;;1.23;0.63;;;15.20;99.90;;;;;;5005517;28;20193;-72
2022/10/15 07:11:52;;;;;;;0.83;0.57;;;15.30;99.90;;;;;;5002630;28;20202;-72
2022/10/15 07:14:18;;;;;;;0.70;0.50;;;15.20;99.90;;;;;;5007918;28;20184;-72
2022/10/15 07:16:43;;;;;;;0.60;0.60;;;15.30;99.90;;;;;;4996058;28;20269;-72
2022/10/15 07:19:09;;;;;;;2.33;0.60;;;15.30;99.90;;;;;;4990763;28;20640;-72
2022/10/15 07:21:35;;;;;;;2.40;0.50;;;15.20;99.90;;;;;;4993325;28;20282;-72
2022/10/15 07:24:00;;;;;;;1.57;0.57;;;15.20;99.90;;;;;;4986060;28;20179;-72
2022/10/15 07:26:29;;;;;;;2.00;0.60;;;15.20;99.90;;;;;;4992978;28;20184;-72
2022/10/15 07:28:55;;;;;;;0.50;0.50;;;15.30;99.90;;;;;;4991607;28;20317;-72
2022/10/15 07:31:21;;;;;;;0.77;0.60;;;15.30;99.90;;;;;;4990408;28;20560;-72
2022/10/15 07:33:47;;;;;;;0.60;0.57;;;15.30;99.90;;;;;;4991954;28;20210;-72
2022/10/15 07:36:12;;;;;;;2.83;0.50;;;15.40;99.90;;;;;;4988357;28;20184;-72
2022/10/15 07:38:41;;;;;;;0.50;0.50;;;15.50;99.90;;;;;;4995067;28;20349;-72
2022/10/15 07:41:08;;;;;;;0.50;0.50;;;15.60;99.90;;;;;;4990223;28;20199;-72
2022/10/15 07:43:34;;;;;;;2.53;0.60;;;15.70;99.90;;;;;;4993035;28;20905;-72
2022/10/15 07:46:00;;;;;;;0.47;0.40;;;15.80;99.90;;;;;;4996437;28;20414;-72
2022/10/15 07:48:26;;;;;;;1.00;0.50;;;15.90;99.90;;;;;;4986721;28;20429;-72
2022/10/15 07:51:00;;;;;;;1.00;0.50;;;15.90;99.90;;;;;;4990274;28;20433;-72
2022/10/15 07:53:26;;;;;;;1.63;0.60;;;16.00;99.90;;;;;;5000158;28;20197;-72
2022/10/15 07:55:52;;;;;;;1.43;0.50;;;16.10;99.90;;;;;;4998335;28;20453;-71
2022/10/15 07:58:18;;;;;;;6.63;1.03;;;16.10;99.90;;;;;;4992640;28;20855;-72
2022/10/15 08:00:44;;;;;;;0.90;0.60;;;16.10;99.90;;;;;;4993419;28;20505;-73
2022/10/15 08:03:09;;;;;;;0.80;0.50;;;16.10;99.90;;;;;;4989267;28;20522;-72
2022/10/15 08:05:35;;;;;;;2.53;0.60;;;16.10;99.90;;;;;;4994538;28;20545;-72
2022/10/15 08:08:00;;;;;;;0.70;0.70;;;16.10;99.90;;;;;;4986214;28;20199;-72
2022/10/15 08:10:27;;;;;;;2.03;0.60;;;16.00;99.90;;;;;;4980743;28;20540;-72
2022/10/15 08:12:52;;;;;;;1.47;0.67;;;15.90;99.90;;;;;;5000435;28;20203;-72
2022/10/15 08:15:18;;;;;;;3.27;0.57;;;15.90;99.90;;;;;;5002402;28;20437;-72
2022/10/15 08:17:44;;;;;;;1.43;0.80;;;15.90;99.90;;;;;;5003084;28;20216;-72
2022/10/15 08:20:10;;;;;;;1.30;0.60;;;15.80;99.90;;;;;;4992261;28;20175;-72
2022/10/15 08:22:35;;;;;;;0.77;0.50;;;15.80;99.90;;;;;;4995460;28;20195;-72
2022/10/15 08:25:01;;;;;;;1.33;0.53;;;15.90;99.90;;;;;;4996328;28;20513;-72
2022/10/15 08:27:27;;;;;;;1.10;0.60;;;15.90;99.90;;;;;;4993445;28;20183;-73
2022/10/15 08:29:53;;;;;;;1.10;0.70;;;16.00;99.90;;;;;;4993199;28;20772;-72
2022/10/15 08:32:18;;;;;;;1.13;0.50;;;16.10;99.90;;;;;;4986105;28;20218;-72
2022/10/15 08:34:44;;;;;;;1.17;0.77;;;16.20;99.90;;;;;;4973867;28;20187;-73
2022/10/15 08:37:09;;;;;;;0.67;0.43;;;16.30;99.90;;;;;;5001644;28;20176;-73
2022/10/15 08:39:35;;;;;;;0.70;0.70;;;16.40;99.90;;;;;;4994133;28;20204;-72
2022/10/15 08:42:05;;;;;;;0.70;0.50;;;16.60;99.90;;;;;;4992264;28;20217;-73
2022/10/15 08:44:42;;;;;;;1.03;0.60;;;16.60;99.90;;;;;;4985087;28;20661;-72
2022/10/15 08:47:25;;;;;;;0.60;0.50;;;16.70;99.90;;;;;;4992418;28;20434;-72
2022/10/15 08:49:57;;;;;;;2.20;0.70;;;16.70;99.90;;;;;;4992668;28;20410;-72
2022/10/15 08:52:34;;;;;;;0.90;0.50;;;16.60;99.90;;;;;;4990586;28;21002;-72
2022/10/15 08:55:01;;;;;;;0.70;0.67;;;16.60;99.90;;;;;;4990456;28;20413;-72
2022/10/15 08:57:45;;;;;;;3.17;0.70;;;16.60;99.90;;;;;;4990201;28;20422;-72
2022/10/15 09:00:18;;;;;;;8.07;0.73;;;16.50;99.90;;;;;;4985478;28;20525;-74
2022/10/15 09:03:03;;;;;;;0.87;0.67;;;16.50;99.90;;;;;;4988656;28;21010;-73
2022/10/15 09:05:51;;;;;;;4.10;1.03;;;16.60;99.90;;;;;;4992288;28;20532;-74
2022/10/15 09:08:22;;;;;;;4.00;0.63;;;16.60;99.90;;;;;;4987933;28;20430;-72
2022/10/15 09:10:56;;;;;;;3.27;0.73;;;16.60;99.90;;;;;;4991945;28;20422;-74
2022/10/15 09:13:27;;;;;;;1.33;0.60;;;16.60;99.90;;;;;;4988492;28;20422;-73
2022/10/15 09:16:04;;;;;;;1.50;0.50;;;16.60;99.90;;;;;;4992144;28;20418;-73
2022/10/15 09:18:34;;;;;;;0.50;0.50;;;16.50;99.90;;;;;;4977567;28;20557;-72
2022/10/15 09:21:03;;;;;;;0.60;0.40;;;16.60;99.90;;;;;;4986375;28;20438;-73
2022/10/15 09:23:29;;;;;;;0.90;0.40;;;16.60;99.90;;;;;;4987763;28;21012;-73
2022/10/15 09:26:24;;;;;;;0.50;0.50;;;16.60;99.90;;;;;;5002681;28;20775;-73
2022/10/15 09:29:13;;;;;;;0.73;0.40;;;16.60;99.90;;;;;;4962135;28;20418;-72
2022/10/15 09:32:10;;;;;;;3.03;0.73;;;16.60;99.90;;;;;;5002965;28;20961;-73
2022/10/15 09:34:49;;;;;;;0.50;0.47;;;16.60;99.90;;;;;;4996109;28;20506;-72
2022/10/15 09:37:35;;;;;;;3.63;0.40;;;16.60;99.90;;;;;;5001958;28;20410;-73
2022/10/15 09:40:09;;;;;;;0.50;0.40;;;16.70;99.90;;;;;;4995278;28;20414;-72
2022/10/15 09:42:38;;;;;;;0.60;0.60;;;16.80;99.90;;;;;;5001241;28;20435;-73
2022/10/15 09:45:08;;;;;;;0.97;0.50;;;16.90;99.90;;;;;;5000082;28;20417;-72
2022/10/15 09:47:35;;;;;;;0.43;0.40;;;17.10;99.90;;;;;;4966842;28;20507;-72
2022/10/15 09:50:06;;;;;;;1.83;0.50;;;17.20;99.90;;;;;;5000643;28;20433;-72
2022/10/15 09:53:02;;;;;;;0.50;0.47;;;17.40;99.90;;;;;;5000817;28;20939;-73
2022/10/15 09:55:49;;;;;;;0.50;0.50;;;17.70;99.90;;;;;;4993209;28;20415;-73
2022/10/15 09:58:18;;;;;;;0.50;0.40;;;18.00;99.90;;;;;;4980927;28;20966;-73
2022/10/15 10:00:52;;;;;;;3.10;0.50;;;18.70;99.90;;;;;;4999999;28;20502;-73
2022/10/15 10:03:17;;;;;;;1.47;0.47;;;19.60;99.90;;;;;;4986680;28;20836;-73
2022/10/15 10:05:44;;;;;;;0.50;0.40;;;19.90;99.90;;;;;;5002413;28;20420;-73
2022/10/15 10:08:38;;;;;;;0.50;0.40;;;19.90;99.90;;;;;;4991956;28;20639;-72
2022/10/15 10:11:07;;;;;;;1.73;0.57;;;19.60;99.90;;;;;;4979725;28;20439;-72
2022/10/15 10:13:54;;;;;;;1.23;0.40;;;19.50;99.90;;;;;;4982896;28;20434;-72
2022/10/15 10:16:20;;;;;;;1.90;0.40;;;19.40;99.90;;;;;;4983435;28;20454;-72
2022/10/15 10:19:04;;;;;;;3.70;0.40;;;19.30;99.90;;;;;;4994275;28;20851;-73
2022/10/15 10:21:32;;;;;;;0.50;0.40;;;19.50;99.90;;;;;;4990304;28;20504;-73
2022/10/15 10:24:23;;;;;;;2.70;0.40;;;19.70;99.90;;;;;;4995505;28;20502;-72
2022/10/15 10:26:49;;;;;;;0.80;0.50;;;19.80;99.90;;;;;;4988460;28;20422;-72
2022/10/15 10:29:19;;;;;;;3.50;0.50;;;20.10;99.90;;;;;;4992591;28;20425;-72
2022/10/15 10:31:48;;;;;;;2.67;0.70;;;20.40;99.90;;;;;;5001215;28;20222;-72
2022/10/15 10:34:17;;;;;;;2.13;0.40;;;20.70;99.90;;;;;;4994391;28;20418;-72
2022/10/15 10:36:48;;;;;;;0.50;0.43;;;21.30;99.90;;;;;;4999452;28;20449;-72
2022/10/15 10:39:29;;;;;;;0.70;0.40;;;21.40;99.90;;;;;;4994472;28;20465;-73
2022/10/15 10:42:02;;;;;;;0.50;0.50;;;21.00;99.90;;;;;;4991792;28;20433;-72
2022/10/15 10:44:33;;;;;;;0.50;0.50;;;20.60;99.90;;;;;;5003166;28;20421;-73
2022/10/15 10:47:07;;;;;;;2.40;0.50;;;20.40;99.90;;;;;;4992310;28;20421;-72
2022/10/15 10:49:36;;;;;;;2.90;0.43;;;20.30;99.90;;;;;;5002342;28;20479;-72
2022/10/15 10:52:02;;;;;;;2.77;0.50;;;20.10;99.90;;;;;;4998649;28;20447;-74
2022/10/15 10:54:30;;;;;;;0.50;0.47;;;20.10;99.90;;;;;;4992931;28;20426;-73
2022/10/15 10:56:58;;;;;;;0.60;0.47;;;20.10;99.90;;;;;;4990627;28;20856;-73
2022/10/15 10:59:41;;;;;;;4.30;0.60;;;20.10;99.90;;;;;;5003184;28;20854;-73
2022/10/15 11:02:11;;;;;;;1.37;0.60;;;19.90;99.90;;;;;;4997708;28;20462;-73
2022/10/15 11:04:38;;;;;;;0.77;0.40;;;19.80;99.90;;;;;;4993785;28;20418;-73
2022/10/15 11:07:18;;;;;;;0.60;0.50;;;19.80;99.90;;;;;;4990779;28;20405;-73
2022/10/15 11:09:57;;;;;;;4.43;0.60;;;19.80;99.90;;;;;;5002007;28;21028;-73
2022/10/15 11:12:43;;;;;;;0.60;0.50;;;19.80;99.90;;;;;;5003262;28;20448;-73
2022/10/15 11:15:14;;;;;;;0.63;0.50;;;19.90;99.90;;;;;;4996964;28;20974;-73
2022/10/15 11:17:47;;;;;;;1.07;0.43;;;20.00;99.90;;;;;;4997696;28;20452;-73
2022/10/15 11:20:23;;;;;;;1.03;0.40;;;20.20;99.90;;;;;;4985402;28;20450;-73
2022/10/15 11:23:21;;;;;;;1.33;0.60;;;20.10;99.90;;;;;;4984973;28;20434;-73
2022/10/15 11:25:58;;;;;;;3.57;0.50;;;20.30;99.90;;;;;;5000763;28;20438;-74
2022/10/15 11:28:42;;;;;;;0.50;0.50;;;20.20;99.90;;;;;;4992898;28;20419;-73
2022/10/15 11:31:34;;;;;;;0.50;0.50;;;20.20;99.90;;;;;;4978779;28;20458;-74
2022/10/15 11:34:04;;;;;;;1.63;0.80;;;20.30;99.90;;;;;;4983285;28;20945;-72
2022/10/15 11:36:44;;;;;;;0.97;0.50;;;20.30;99.90;;;;;;4996316;28;20906;-72
2022/10/15 11:39:29;;;;;;;3.50;0.60;;;20.30;99.90;;;;;;4983178;28;20470;-69
2022/10/15 11:42:21;;;;;;;3.73;1.00;;;20.30;99.90;;;;;;4987616;28;20984;-70
2022/10/15 11:44:53;;;;;;;1.23;0.50;;;20.20;99.90;;;;;;5000630;28;20426;-71
2022/10/15 11:47:36;;;;;;;0.60;0.60;;;20.20;99.90;;;;;;4994957;28;20938;-70
2022/10/15 11:50:18;;;;;;;0.80;0.60;;;20.10;99.90;;;;;;5000279;28;20418;-70
2022/10/15 11:52:55;;;;;;;3.13;1.27;;;19.90;99.90;;;;;;4998493;28;20453;-71
2022/10/15 11:55:24;;;;;;;0.73;0.50;;;20.00;99.90;;;;;;4998047;28;20427;-70
2022/10/15 11:57:53;;;;;;;2.70;0.73;;;20.30;99.90;;;;;;4999761;28;20462;-70
2022/10/15 12:00:33;;;;;;;0.67;0.53;;;20.70;99.90;;;;;;4991391;28;20415;-68
2022/10/15 12:03:11;;;;;;;0.50;0.50;;;21.30;99.90;;;;;;4998744;28;20429;-71
2022/10/15 12:05:49;;;;;;;1.30;0.57;;;21.70;99.90;;;;;;5001163;28;20536;-71
2022/10/15 12:08:16;;;;;;;1.73;0.50;;;22.00;99.90;;;;;;5000251;28;20492;-71
2022/10/15 12:11:04;;;;;;;0.60;0.60;;;22.30;99.90;;;;;;5003340;28;20454;-70
2022/10/15 12:13:37;;;;;;;0.73;0.50;;;22.30;99.90;;;;;;5002229;28;20835;-71
2022/10/15 12:16:28;;;;;;;0.87;0.60;;;22.20;99.90;;;;;;4992656;28;20428;-70
2022/10/15 12:19:14;;;;;;;3.23;0.50;;;21.80;99.90;;;;;;5005075;28;20839;-70
2022/10/15 12:22:05;;;;;;;1.00;0.50;;;21.30;99.90;;;;;;4996703;28;20435;-70
2022/10/15 12:24:36;;;;;;;1.60;0.40;;;21.00;99.90;;;;;;4990150;28;20430;-73
2022/10/15 12:27:17;;;;;;;2.10;0.70;;;20.80;99.90;;;;;;5005772;28;20421;-71
2022/10/15 12:29:51;;;;;;;0.70;0.50;;;20.40;99.90;;;;;;5002674;28;20440;-71
2022/10/15 12:32:25;;;;;;;1.37;0.50;;;20.10;99.90;;;;;;4995452;28;21010;-70
2022/10/15 12:35:02;;;;;;;3.00;0.50;;;19.90;99.90;;;;;;4994416;28;20426;-70
2022/10/15 12:37:29;;;;;;;1.03;0.60;;;19.80;99.90;;;;;;5005227;28;20417;-70
2022/10/15 12:40:03;;;;;;;0.60;0.60;;;19.60;99.90;;;;;;5000645;28;20431;-71
2022/10/15 12:42:38;;;;;;;0.50;0.40;;;19.60;99.90;;;;;;4995484;28;20445;-71
2022/10/15 12:45:17;;;;;;;1.13;0.50;;;19.60;99.90;;;;;;4995131;28;20833;-70
2022/10/15 12:47:55;;;;;;;1.37;0.43;;;19.40;99.90;;;;;;4999991;28;20413;-71
2022/10/15 12:50:26;;;;;;;3.47;1.00;;;19.10;99.90;;;;;;4995374;28;20417;-71
2022/10/15 12:53:33;;;;;;;0.80;0.50;;;18.90;99.90;;;;;;4996362;28;20437;-71
2022/10/15 12:56:23;;;;;;;0.80;0.50;;;18.70;99.90;;;;;;4993354;28;20430;-71
2022/10/15 12:58:52;;;;;;;2.00;0.50;;;18.70;99.90;;;;;;4996456;28;20474;-71
2022/10/15 13:01:20;;;;;;;1.67;0.50;;;18.50;99.90;;;;;;4999329;28;20468;-70
2022/10/15 13:03:49;;;;;;;0.60;0.50;;;18.50;99.90;;;;;;4986667;28;20410;-71
2022/10/15 13:06:17;;;;;;;2.40;0.40;;;18.40;99.90;;;;;;5001553;28;20180;-71
2022/10/15 13:08:50;;;;;;;0.90;0.50;;;18.40;99.90;;;;;;5002785;28;20469;-71
2022/10/15 13:11:29;;;;;;;0.90;0.40;;;18.30;99.90;;;;;;5000673;28;20451;-70
2022/10/15 13:13:59;;;;;;;3.50;0.60;;;18.10;99.90;;;;;;5004651;28;20795;-70
2022/10/15 13:16:25;;;;;;;1.37;0.60;;;18.10;99.90;;;;;;5006807;28;20529;-70
2022/10/15 13:18:54;;;;;;;3.13;0.60;;;18.00;99.90;;;;;;5003697;28;20581;-71
2022/10/15 13:21:20;;;;;;;1.07;0.70;;;17.90;99.90;;;;;;4996388;28;20673;-70
2022/10/15 13:23:48;;;;;;;0.70;0.60;;;17.80;99.90;;;;;;4985662;28;20935;-71
2022/10/15 13:26:19;;;;;;;0.60;0.60;;;17.80;99.90;;;;;;5000947;28;20419;-70
2022/10/15 13:28:49;;;;;;;2.30;0.60;;;17.80;99.90;;;;;;5002977;28;20427;-70
2022/10/15 13:31:34;;;;;;;7.20;0.90;;;17.80;99.90;;;;;;4996130;28;20450;-71
2022/10/15 13:34:25;;;;;;;0.60;0.60;;;17.70;99.90;;;;;;4979121;28;20510;-71
2022/10/15 13:36:51;;;;;;;1.70;0.80;;;17.60;99.90;;;;;;5002926;28;20442;-71
2022/10/15 13:39:36;;;;;;;1.37;1.27;;;17.60;99.90;;;;;;5004043;28;20501;-70
2022/10/15 13:42:20;;;;;;;2.33;0.90;;;17.50;99.90;;;;;;4984704;28;20438;-70
2022/10/15 13:45:17;;;;;;;0.73;0.70;;;17.40;99.90;;;;;;4988341;28;20425;-70
2022/10/15 13:47:48;;;;;;;0.90;0.70;;;17.40;99.90;;;;;;4994577;28;20456;-71
2022/10/15 13:50:20;;;;;;;2.63;1.00;;;17.50;99.90;;;;;;4995820;28;20418;-71
2022/10/15 13:53:11;;;;;;;5.53;0.70;;;17.50;99.90;;;;;;4989166;28;20434;-71
2022/10/15 13:55:38;;;;;;;1.00;0.90;;;17.50;99.90;;;;;;4998079;28;20420;-71
2022/10/15 13:58:16;;;;;;;3.77;0.90;;;17.50;99.90;;;;;;5000269;28;20486;-69
2022/10/15 14:00:47;;;;;;;1.60;0.60;;;17.50;99.90;;;;;;4997406;28;20501;-74
2022/10/15 14:03:21;;;;;;;0.70;0.70;;;17.40;99.90;;;;;;4992495;28;20414;-71
2022/10/15 14:05:48;;;;;;;0.60;0.60;;;17.50;99.90;;;;;;4997998;28;20420;-72
2022/10/15 14:08:18;;;;;;;0.87;0.73;;;17.40;99.90;;;;;;4982949;28;20427;-72
2022/10/15 14:10:44;;;;;;;2.60;1.13;;;17.40;99.90;;;;;;4998146;28;20459;-72
2022/10/15 14:13:10;;;;;;;2.03;0.53;;;17.40;99.90;;;;;;4987993;28;20415;-71
2022/10/15 14:15:45;;;;;;;2.30;0.70;;;17.30;99.90;;;;;;4997741;28;20938;-71
2022/10/15 14:18:14;;;;;;;0.90;0.60;;;17.30;99.90;;;;;;4999935;28;20613;-71
2022/10/15 14:20:45;;;;;;;0.60;0.60;;;17.20;99.90;;;;;;4996093;28;20426;-71
2022/10/15 14:23:22;;;;;;;2.60;0.80;;;17.10;99.90;;;;;;4982686;28;20788;-71
2022/10/15 14:25:59;;;;;;;1.07;0.60;;;17.20;99.90;;;;;;4998879;28;20508;-72
2022/10/15 14:28:25;;;;;;;2.50;0.70;;;17.20;99.90;;;;;;4995666;28;20945;-73
2022/10/15 14:30:51;;;;;;;0.80;0.80;;;17.20;99.90;;;;;;4995995;28;20417;-71
2022/10/15 14:33:39;;;;;;;1.00;0.90;;;17.10;99.90;;;;;;4993180;28;20849;-72